createdAt,value
2023-04-22T00:00:21.387Z,12.97
2023-04-22T00:02:48.840Z,11.97
2023-04-22T00:05:20.317Z,9.03
2023-04-22T00:07:48.007Z,12.17
2023-04-22T00:10:15.266Z,9.23
2023-04-22T00:12:42.787Z,10.40
2023-04-22T00:15:10.773Z,11.63
2023-04-22T00:17:37.962Z,9.93
2023-04-22T00:20:06.151Z,9.70
2023-04-22T00:22:33.362Z,9.13
2023-04-22T00:25:00.562Z,9.40
2023-04-22T00:27:27.889Z,8.40
2023-04-22T00:29:55.301Z,10.80
2023-04-22T00:32:22.647Z,7.80
2023-04-22T00:34:50.371Z,8.80
2023-04-22T00:37:18.134Z,10.93
2023-04-22T00:39:45.589Z,11.03
2023-04-22T00:42:14.300Z,10.50
2023-04-22T00:44:41.764Z,9.93
2023-04-22T00:47:10.071Z,10.30
2023-04-22T00:49:37.616Z,13.07
2023-04-22T00:52:05.217Z,8.57
2023-04-22T00:54:32.898Z,10.27
2023-04-22T00:57:00.190Z,9.60
2023-04-22T00:59:27.631Z,9.67
2023-04-22T01:01:55.017Z,10.77
2023-04-22T01:04:22.797Z,9.57
2023-04-22T01:06:50.010Z,12.03
2023-04-22T01:09:17.315Z,12.37
2023-04-22T01:11:44.752Z,8.67
2023-04-22T01:14:12.123Z,10.50
2023-04-22T01:16:39.882Z,10.83
2023-04-22T01:19:08.495Z,7.80
2023-04-22T01:21:36.111Z,9.13
2023-04-22T01:24:03.267Z,10.70
2023-04-22T01:26:30.550Z,12.17
2023-04-22T01:28:57.747Z,12.80
2023-04-22T01:31:25.205Z,8.77
2023-04-22T01:33:52.795Z,11.40
2023-04-22T01:36:20.132Z,10.67
2023-04-22T01:38:47.456Z,9.33
2023-04-22T01:41:14.965Z,10.60
2023-04-22T01:43:42.599Z,9.57
2023-04-22T01:46:10.121Z,10.37
2023-04-22T01:48:37.714Z,10.07
2023-04-22T01:51:04.880Z,13.90
2023-04-22T01:53:32.076Z,12.33
2023-04-22T01:56:00.460Z,12.53
2023-04-22T01:58:29.780Z,11.57
2023-04-22T02:00:57.356Z,16.20
2023-04-22T02:03:24.955Z,12.33
2023-04-22T02:05:52.430Z,12.60
2023-04-22T02:08:19.650Z,9.30
2023-04-22T02:10:46.859Z,13.27
2023-04-22T02:13:14.089Z,10.80
2023-04-22T02:15:41.386Z,16.50
2023-04-22T02:18:10.209Z,13.60
2023-04-22T02:20:37.560Z,12.00
2023-04-22T02:23:05.394Z,12.10
2023-04-22T02:25:32.608Z,11.03
2023-04-22T02:27:59.837Z,12.67
2023-04-22T02:30:27.070Z,14.50
2023-04-22T02:32:54.300Z,12.70
2023-04-22T02:35:21.522Z,13.00
2023-04-22T02:37:48.722Z,14.83
2023-04-22T02:40:16.112Z,11.93
2023-04-22T02:42:43.345Z,14.47
2023-04-22T02:45:10.816Z,13.93
2023-04-22T02:47:38.052Z,15.53
2023-04-22T02:50:05.433Z,17.27
2023-04-22T02:52:34.026Z,12.07
2023-04-22T02:55:01.754Z,17.23
2023-04-22T02:57:29.220Z,12.80
2023-04-22T02:59:57.139Z,13.57
2023-04-22T03:02:24.525Z,16.53
2023-04-22T03:04:54.374Z,15.87
2023-04-22T03:07:21.930Z,12.73
2023-04-22T03:09:49.691Z,12.37
2023-04-22T03:12:17.019Z,14.10
2023-04-22T03:14:44.166Z,12.00
2023-04-22T03:17:11.322Z,19.17
2023-04-22T03:19:38.729Z,14.53
2023-04-22T03:22:06.575Z,22.30
2023-04-22T03:24:33.714Z,11.63
2023-04-22T03:27:02.196Z,15.67
2023-04-22T03:29:29.439Z,14.83
2023-04-22T03:31:56.727Z,14.57
2023-04-22T03:34:23.920Z,17.93
2023-04-22T03:36:51.067Z,16.40
2023-04-22T03:39:18.216Z,14.00
2023-04-22T03:41:45.462Z,11.93
2023-04-22T03:44:12.635Z,14.47
2023-04-22T03:46:39.805Z,15.63
2023-04-22T03:49:07.449Z,19.03
2023-04-22T03:51:34.954Z,13.07
2023-04-22T03:54:02.245Z,15.30
2023-04-22T03:56:29.479Z,14.97
2023-04-22T03:58:56.693Z,18.30
2023-04-22T04:01:23.920Z,12.60
2023-04-22T04:03:51.284Z,13.63
2023-04-22T04:06:18.603Z,16.13
2023-04-22T04:08:46.571Z,16.77
2023-04-22T04:11:13.802Z,16.43
2023-04-22T04:13:40.990Z,14.53
2023-04-22T04:16:08.517Z,16.47
2023-04-22T04:18:36.637Z,13.30
2023-04-22T04:21:04.273Z,11.80
2023-04-22T04:23:32.179Z,20.87
2023-04-22T04:26:01.192Z,15.97
2023-04-22T04:28:30.187Z,11.57
2023-04-22T04:30:57.543Z,11.10
2023-04-22T04:33:24.739Z,14.40
2023-04-22T04:35:52.217Z,15.40
2023-04-22T04:38:19.670Z,13.20
2023-04-22T04:40:46.913Z,16.37
2023-04-22T04:43:14.386Z,13.40
2023-04-22T04:45:48.497Z,16.17
2023-04-22T04:48:16.858Z,16.30
2023-04-22T04:50:44.435Z,13.37
2023-04-22T04:53:14.941Z,12.90
2023-04-22T04:55:42.516Z,17.90
2023-04-22T04:58:10.044Z,15.90
2023-04-22T05:00:37.346Z,15.13
2023-04-22T05:03:04.978Z,16.07
2023-04-22T05:05:32.615Z,14.17
2023-04-22T05:07:59.797Z,16.40
2023-04-22T05:10:27.035Z,16.63
2023-04-22T05:12:54.657Z,19.23
2023-04-22T05:15:22.193Z,25.47
2023-04-22T05:17:49.477Z,26.67
2023-04-22T05:20:16.688Z,27.30
2023-04-22T05:22:45.848Z,22.23
2023-04-22T05:25:13.024Z,20.50
2023-04-22T05:27:41.381Z,16.77
2023-04-22T05:30:08.978Z,16.17
2023-04-22T05:32:36.154Z,21.40
2023-04-22T05:35:03.809Z,19.77
2023-04-22T05:37:31.089Z,15.03
2023-04-22T05:40:16.140Z,17.70
2023-04-22T05:42:43.398Z,23.10
2023-04-22T05:45:10.767Z,18.33
2023-04-22T05:47:38.073Z,13.80
2023-04-22T05:50:06.095Z,19.63
2023-04-22T05:52:34.082Z,19.53
2023-04-22T05:55:01.712Z,17.43
2023-04-22T05:57:28.983Z,18.23
2023-04-22T05:59:56.184Z,17.93
2023-04-22T06:02:23.823Z,15.83
2023-04-22T06:04:51.292Z,19.83
2023-04-22T06:07:18.681Z,18.60
2023-04-22T06:09:46.005Z,14.70
2023-04-22T06:12:13.212Z,19.77
2023-04-22T06:14:40.441Z,17.43
2023-04-22T06:17:10.824Z,19.73
2023-04-22T06:19:38.209Z,15.90
2023-04-22T06:22:23.148Z,17.10
2023-04-22T06:24:50.303Z,15.40
2023-04-22T06:27:17.637Z,23.53
2023-04-22T06:29:44.779Z,18.40
2023-04-22T06:32:14.286Z,18.03
2023-04-22T06:34:43.534Z,18.87
2023-04-22T06:37:10.755Z,20.40
2023-04-22T06:39:41.445Z,14.63
2023-04-22T06:42:11.173Z,17.03
2023-04-22T06:44:38.504Z,17.30
2023-04-22T06:47:05.874Z,17.07
2023-04-22T06:49:33.184Z,14.67
2023-04-22T06:52:00.451Z,16.30
2023-04-22T06:54:27.876Z,15.00
2023-04-22T06:56:55.586Z,16.27
2023-04-22T06:59:22.929Z,17.63
2023-04-22T07:01:50.236Z,17.23
2023-04-22T07:04:17.455Z,22.60
2023-04-22T07:06:44.669Z,17.37
2023-04-22T07:09:12.119Z,14.27
2023-04-22T07:11:49.749Z,21.70
2023-04-22T07:14:17.012Z,18.13
2023-04-22T07:16:44.243Z,18.57
2023-04-22T07:19:14.463Z,15.50
2023-04-22T07:21:41.851Z,13.13
2023-04-22T07:24:12.144Z,19.50
2023-04-22T07:26:43.357Z,15.00
2023-04-22T07:29:11.420Z,15.15
2023-04-22T07:31:41.246Z,14.90
2023-04-22T07:34:12.922Z,17.70
2023-04-22T07:36:42.533Z,19.33
2023-04-22T07:39:12.600Z,15.70
2023-04-22T07:41:39.920Z,16.80
2023-04-22T07:44:07.201Z,17.67
2023-04-22T07:46:34.890Z,16.80
2023-04-22T07:49:02.107Z,16.92
2023-04-22T07:51:29.802Z,17.38
2023-04-22T07:53:56.982Z,14.90
2023-04-22T07:56:26.252Z,18.88
2023-04-22T07:58:53.521Z,22.58
2023-04-22T08:01:20.765Z,16.88
2023-04-22T08:04:01.072Z,24.52
2023-04-22T08:06:32.076Z,12.45
2023-04-22T08:08:59.360Z,12.00
2023-04-22T08:11:26.761Z,17.38
2023-04-22T08:13:53.960Z,17.55
2023-04-22T08:16:29.946Z,11.00
2023-04-22T08:19:01.503Z,13.75
2023-04-22T08:21:38.329Z,12.80
2023-04-22T08:24:05.812Z,14.80
2023-04-22T08:26:33.257Z,15.52
2023-04-22T08:29:01.381Z,11.00
2023-04-22T08:31:28.615Z,12.23
2023-04-22T08:33:56.313Z,16.40
2023-04-22T08:36:25.895Z,13.43
2023-04-22T08:38:53.114Z,16.17
2023-04-22T08:41:20.438Z,11.90
2023-04-22T08:43:47.637Z,22.67
2023-04-22T08:46:15.930Z,13.45
2023-04-22T08:48:43.318Z,12.25
2023-04-22T08:51:10.800Z,8.13
2023-04-22T08:53:38.290Z,14.25
2023-04-22T08:56:06.371Z,8.70
2023-04-22T08:58:35.524Z,9.73
2023-04-22T09:01:06.768Z,15.90
2023-04-22T09:03:35.889Z,18.10
2023-04-22T09:06:06.405Z,11.88
2023-04-22T09:08:33.613Z,13.35
2023-04-22T09:11:00.856Z,14.32
2023-04-22T09:13:28.623Z,9.98
2023-04-22T09:15:59.803Z,10.20
2023-04-22T09:18:37.509Z,10.77
2023-04-22T09:21:04.746Z,11.30
2023-04-22T09:23:32.047Z,10.45
2023-04-22T09:25:59.716Z,9.23
2023-04-22T09:28:27.143Z,8.95
2023-04-22T09:30:54.323Z,8.05
2023-04-22T09:33:21.541Z,11.05
2023-04-22T09:35:48.729Z,9.20
2023-04-22T09:38:16.749Z,8.95
2023-04-22T09:40:45.000Z,9.50
2023-04-22T09:43:12.303Z,11.00
2023-04-22T09:45:41.298Z,12.95
2023-04-22T09:48:12.563Z,14.02
2023-04-22T09:50:40.812Z,13.38
2023-04-22T09:53:09.317Z,11.98
2023-04-22T09:55:37.979Z,10.73
2023-04-22T09:58:07.380Z,18.80
2023-04-22T10:00:35.852Z,26.58
2023-04-22T10:03:03.347Z,18.75
2023-04-22T10:05:30.813Z,11.90
2023-04-22T10:07:58.225Z,19.92
2023-04-22T10:10:25.628Z,12.48
2023-04-22T10:12:53.308Z,16.10
2023-04-22T10:15:20.486Z,8.82
2023-04-22T10:17:47.963Z,9.40
2023-04-22T10:20:18.173Z,10.20
2023-04-22T10:22:45.576Z,10.55
2023-04-22T10:25:15.126Z,10.63
2023-04-22T10:27:42.809Z,8.63
2023-04-22T10:30:10.804Z,12.65
2023-04-22T10:32:38.456Z,11.38
2023-04-22T10:35:10.047Z,9.20
2023-04-22T10:37:39.063Z,10.13
2023-04-22T10:40:13.942Z,10.82
2023-04-22T10:42:42.111Z,14.63
2023-04-22T10:45:14.208Z,9.43
2023-04-22T10:47:42.187Z,7.75
2023-04-22T10:50:10.334Z,8.68
2023-04-22T10:52:37.684Z,10.57
2023-04-22T10:55:05.236Z,14.18
2023-04-22T10:57:41.212Z,8.15
2023-04-22T11:00:17.512Z,11.48
2023-04-22T11:02:48.776Z,14.95
2023-04-22T11:05:20.222Z,13.88
2023-04-22T11:07:50.868Z,8.73
2023-04-22T11:10:43.068Z,11.52
2023-04-22T11:13:13.984Z,16.92
2023-04-22T11:15:41.912Z,18.48
2023-04-22T11:18:10.906Z,11.57
2023-04-22T11:20:38.200Z,8.45
2023-04-22T11:23:05.458Z,10.45
2023-04-22T11:25:32.995Z,12.18
2023-04-22T11:28:00.328Z,9.60
2023-04-22T11:30:28.618Z,10.68
2023-04-22T11:32:58.298Z,8.45
2023-04-22T11:35:29.950Z,10.85
2023-04-22T11:37:59.025Z,12.98
2023-04-22T11:40:32.133Z,9.95
2023-04-22T11:43:01.643Z,8.88
2023-04-22T11:45:32.945Z,9.55
2023-04-22T11:48:00.609Z,14.93
2023-04-22T11:50:29.033Z,9.90
2023-04-22T11:52:57.277Z,9.93
2023-04-22T11:55:34.865Z,10.88
2023-04-22T11:58:22.358Z,9.55
2023-04-22T12:00:50.979Z,10.15
2023-04-22T12:03:22.483Z,11.55
2023-04-22T12:05:57.530Z,10.65
2023-04-22T12:08:26.369Z,9.15
2023-04-22T12:10:57.462Z,11.07
2023-04-22T12:13:26.017Z,12.45
2023-04-22T12:15:58.083Z,9.85
2023-04-22T12:18:32.151Z,10.25
2023-04-22T12:21:05.529Z,12.38
2023-04-22T12:23:41.559Z,10.63
2023-04-22T12:26:08.992Z,15.30
2023-04-22T12:28:38.351Z,12.60
2023-04-22T12:31:05.815Z,17.95
2023-04-22T12:33:33.465Z,14.27
2023-04-22T12:36:00.681Z,9.95
2023-04-22T12:38:27.841Z,11.77
2023-04-22T12:40:55.653Z,10.20
2023-04-22T12:43:22.854Z,11.55
2023-04-22T12:45:50.415Z,9.80
2023-04-22T12:48:17.674Z,10.55
2023-04-22T12:50:44.903Z,12.52
2023-04-22T12:53:12.173Z,12.80
2023-04-22T12:55:39.518Z,8.55
2023-04-22T12:58:06.699Z,10.38
2023-04-22T13:00:33.951Z,15.60
2023-04-22T13:03:01.369Z,12.82
2023-04-22T13:05:28.781Z,14.05
2023-04-22T13:08:06.577Z,11.07
2023-04-22T13:10:35.276Z,10.40
2023-04-22T13:13:17.598Z,9.82
2023-04-22T13:15:45.632Z,12.43
2023-04-22T13:18:13.028Z,10.77
2023-04-22T13:20:41.716Z,11.07
2023-04-22T13:23:09.723Z,10.07
2023-04-22T13:25:37.107Z,14.40
2023-04-22T13:28:04.308Z,11.30
2023-04-22T13:30:34.780Z,14.35
2023-04-22T13:33:02.035Z,15.95
2023-04-22T13:35:29.304Z,12.32
2023-04-22T13:37:56.947Z,14.43
2023-04-22T13:40:24.211Z,20.23
2023-04-22T13:42:51.358Z,17.67
2023-04-22T13:45:18.673Z,9.77
2023-04-22T13:47:45.960Z,16.63
2023-04-22T13:50:13.128Z,10.50
2023-04-22T13:52:40.362Z,11.85
2023-04-22T13:55:07.880Z,10.85
2023-04-22T13:57:35.183Z,12.10
2023-04-22T14:00:02.421Z,11.63
2023-04-22T14:02:29.685Z,9.55
2023-04-22T14:04:56.934Z,10.05
2023-04-22T14:07:24.315Z,8.35
2023-04-22T14:09:51.486Z,9.30
2023-04-22T14:12:18.668Z,12.68
2023-04-22T14:14:45.977Z,7.93
2023-04-22T14:17:13.243Z,11.38
2023-04-22T14:19:40.707Z,9.90
2023-04-22T14:22:08.090Z,10.45
2023-04-22T14:24:35.295Z,9.00
2023-04-22T14:27:02.502Z,8.07
2023-04-22T14:29:32.858Z,9.38
2023-04-22T14:32:00.262Z,12.00
2023-04-22T14:34:27.558Z,9.48
2023-04-22T14:36:54.855Z,8.65
2023-04-22T14:39:22.140Z,10.50
2023-04-22T14:41:49.697Z,10.10
2023-04-22T14:44:17.257Z,10.95
2023-04-22T14:46:45.207Z,9.93
2023-04-22T14:49:12.391Z,8.38
2023-04-22T14:51:39.709Z,16.08
2023-04-22T14:54:07.014Z,7.25
2023-04-22T14:56:34.339Z,9.32
2023-04-22T14:59:01.677Z,12.98
2023-04-22T15:01:28.965Z,13.05
2023-04-22T15:03:56.170Z,10.15
2023-04-22T15:06:23.743Z,9.70
2023-04-22T15:08:54.224Z,9.45
2023-04-22T15:11:21.473Z,10.13
2023-04-22T15:13:50.123Z,13.20
2023-04-22T15:16:17.417Z,11.18
2023-04-22T15:18:44.645Z,12.27
2023-04-22T15:21:11.976Z,11.50
2023-04-22T15:23:39.178Z,9.90
2023-04-22T15:26:06.818Z,12.13
2023-04-22T15:28:34.295Z,10.02
2023-04-22T15:31:01.960Z,10.55
2023-04-22T15:33:29.172Z,10.40
2023-04-22T15:35:56.374Z,10.43
2023-04-22T15:38:24.752Z,9.80
2023-04-22T15:40:51.928Z,9.18
2023-04-22T15:43:19.095Z,8.48
2023-04-22T15:45:46.248Z,8.07
2023-04-22T15:48:13.403Z,11.00
2023-04-22T15:50:41.033Z,8.90
2023-04-22T15:53:08.416Z,11.00
2023-04-22T15:55:35.956Z,8.30
2023-04-22T15:58:03.132Z,8.05
2023-04-22T16:00:30.477Z,10.57
2023-04-22T16:02:58.086Z,7.47
2023-04-22T16:05:25.502Z,8.95
2023-04-22T16:07:53.331Z,7.50
2023-04-22T16:10:20.847Z,7.28
2023-04-22T16:12:48.221Z,8.38
2023-04-22T16:15:16.513Z,9.10
2023-04-22T16:17:44.350Z,8.85
2023-04-22T16:20:11.976Z,11.55
2023-04-22T16:22:39.616Z,10.60
2023-04-22T16:25:07.146Z,12.85
2023-04-22T16:27:34.540Z,10.23
2023-04-22T16:30:04.912Z,12.75
2023-04-22T16:32:32.284Z,10.73
2023-04-22T16:34:59.453Z,9.70
2023-04-22T16:37:27.556Z,9.18
2023-04-22T16:39:55.270Z,12.85
2023-04-22T16:42:22.589Z,9.88
2023-04-22T16:44:51.353Z,10.77
2023-04-22T16:47:18.693Z,11.02
2023-04-22T16:49:46.370Z,8.60
2023-04-22T16:52:13.649Z,9.38
2023-04-22T16:54:42.496Z,12.48
2023-04-22T16:57:10.562Z,16.02
2023-04-22T16:59:38.905Z,22.27
2023-04-22T17:02:06.394Z,16.48
2023-04-22T17:04:33.688Z,18.88
2023-04-22T17:07:00.975Z,19.40
2023-04-22T17:09:28.321Z,14.05
2023-04-22T17:11:56.159Z,17.08
2023-04-22T17:14:23.367Z,18.58
2023-04-22T17:16:50.627Z,11.57
2023-04-22T17:19:17.833Z,21.83
2023-04-22T17:21:45.133Z,15.57
2023-04-22T17:24:12.313Z,30.25
2023-04-22T17:26:39.778Z,31.90
2023-04-22T17:29:07.029Z,26.27
2023-04-22T17:31:34.579Z,27.67
2023-04-22T17:34:01.757Z,48.30
2023-04-22T17:36:29.001Z,53.78
2023-04-22T17:38:56.177Z,32.22
2023-04-22T17:41:23.381Z,31.02
2023-04-22T17:43:50.630Z,62.78
2023-04-22T17:46:17.902Z,67.18
2023-04-22T17:48:46.808Z,55.85
2023-04-22T17:51:14.408Z,87.97
2023-04-22T17:53:42.091Z,63.22
2023-04-22T17:56:09.586Z,69.57
2023-04-22T17:58:39.955Z,95.80
2023-04-22T18:01:07.408Z,110.50
2023-04-22T18:03:35.615Z,128.70
2023-04-22T18:06:02.992Z,127.28
2023-04-22T18:08:30.763Z,112.95
2023-04-22T18:10:58.658Z,126.30
2023-04-22T18:13:25.815Z,105.95
2023-04-22T18:15:53.032Z,93.40
2023-04-22T18:18:20.224Z,107.88
2023-04-22T18:20:47.514Z,110.30
2023-04-22T18:23:14.668Z,134.48
2023-04-22T18:25:44.377Z,136.52
2023-04-22T18:28:11.638Z,165.52
2023-04-22T18:30:38.890Z,223.25
2023-04-22T18:33:06.537Z,204.00
2023-04-22T18:35:36.196Z,210.95
2023-04-22T18:38:03.469Z,223.70
2023-04-22T18:40:33.186Z,263.15
2023-04-22T18:43:00.692Z,194.40
2023-04-22T18:45:27.951Z,224.73
2023-04-22T18:47:55.443Z,238.15
2023-04-22T18:50:22.734Z,261.40
2023-04-22T18:52:49.915Z,244.23
2023-04-22T18:55:17.123Z,249.57
2023-04-22T18:57:44.307Z,214.70
2023-04-22T19:00:13.141Z,213.10
2023-04-22T19:02:42.403Z,224.52
2023-04-22T19:05:10.231Z,212.02
2023-04-22T19:07:38.347Z,217.43
2023-04-22T19:10:05.843Z,218.93
2023-04-22T19:12:33.021Z,207.40
2023-04-22T19:15:00.388Z,198.30
2023-04-22T19:17:28.019Z,182.63
2023-04-22T19:19:55.419Z,210.60
2023-04-22T19:22:22.912Z,177.93
2023-04-22T19:24:50.488Z,161.55
2023-04-22T19:27:17.672Z,144.35
2023-04-22T19:29:51.143Z,127.53
2023-04-22T19:32:18.561Z,120.85
2023-04-22T19:34:47.264Z,116.28
2023-04-22T19:37:14.742Z,111.40
2023-04-22T19:39:42.242Z,112.28
2023-04-22T19:42:09.657Z,103.43
2023-04-22T19:44:37.098Z,107.40
2023-04-22T19:47:04.370Z,110.93
2023-04-22T19:49:32.745Z,88.82
2023-04-22T19:52:02.156Z,91.57
2023-04-22T19:54:30.235Z,79.78
2023-04-22T19:56:58.526Z,79.75
2023-04-22T19:59:28.002Z,86.03
2023-04-22T20:01:55.460Z,95.60
2023-04-22T20:04:23.180Z,84.70
2023-04-22T20:06:51.654Z,93.32
2023-04-22T20:09:19.114Z,100.78
2023-04-22T20:11:46.889Z,95.45
2023-04-22T20:14:14.174Z,98.10
2023-04-22T20:16:42.593Z,92.30
2023-04-22T20:19:11.458Z,107.63
2023-04-22T20:21:39.915Z,98.65
2023-04-22T20:24:07.893Z,100.87
2023-04-22T20:26:35.132Z,101.87
2023-04-22T20:29:03.283Z,104.60
2023-04-22T20:31:30.694Z,94.37
2023-04-22T20:33:58.093Z,91.13
2023-04-22T20:36:26.190Z,99.10
2023-04-22T20:38:54.907Z,70.80
2023-04-22T20:41:24.722Z,79.87
2023-04-22T20:43:52.498Z,107.23
2023-04-22T20:46:22.833Z,104.10
2023-04-22T20:48:50.340Z,113.80
2023-04-22T20:51:17.544Z,104.83
2023-04-22T20:53:45.465Z,113.40
2023-04-22T20:56:13.292Z,99.67
2023-04-22T20:58:40.811Z,85.53
2023-04-22T21:01:12.268Z,116.17
2023-04-22T21:03:39.860Z,117.20
2023-04-22T21:06:08.612Z,133.83
2023-04-22T21:08:39.217Z,145.23
2023-04-22T21:11:06.785Z,133.70
2023-04-22T21:13:34.727Z,161.90
2023-04-22T21:16:01.916Z,153.80
2023-04-22T21:18:30.437Z,142.60
2023-04-22T21:20:58.270Z,142.60
2023-04-22T21:23:26.740Z,120.10
2023-04-22T21:25:57.855Z,114.23
2023-04-22T21:28:25.360Z,99.87
2023-04-22T21:30:52.952Z,105.17
2023-04-22T21:33:20.627Z,119.73
2023-04-22T21:35:48.090Z,138.53
2023-04-22T21:38:16.437Z,142.97
2023-04-22T21:40:43.840Z,148.77
2023-04-22T21:43:11.029Z,151.67
2023-04-22T21:45:38.382Z,149.63
2023-04-22T21:48:05.854Z,138.87
2023-04-22T21:50:33.122Z,128.57
2023-04-22T21:53:00.569Z,131.00
2023-04-22T21:55:27.760Z,123.03
2023-04-22T21:57:55.683Z,136.10
2023-04-22T22:00:24.857Z,117.23
2023-04-22T22:02:53.127Z,108.57
2023-04-22T22:05:20.890Z,114.90
2023-04-22T22:07:48.850Z,104.17
2023-04-22T22:10:20.643Z,101.87
2023-04-22T22:12:48.229Z,99.87
2023-04-22T22:15:16.312Z,92.50
2023-04-22T22:17:44.119Z,92.20
2023-04-22T22:20:12.855Z,99.67
2023-04-22T22:22:40.442Z,82.13
2023-04-22T22:25:09.010Z,85.70
2023-04-22T22:27:36.574Z,81.57
2023-04-22T22:30:03.980Z,82.23
2023-04-22T22:32:31.401Z,77.10
2023-04-22T22:34:59.243Z,82.53
2023-04-22T22:37:26.485Z,76.23
2023-04-22T22:39:53.662Z,89.00
2023-04-22T22:42:20.851Z,77.77
2023-04-22T22:44:48.139Z,72.73
2023-04-22T22:47:17.617Z,72.77
2023-04-22T22:49:45.437Z,77.63
2023-04-22T22:52:13.043Z,71.23
2023-04-22T22:54:40.878Z,76.23
2023-04-22T22:57:08.569Z,75.17
2023-04-22T22:59:36.367Z,73.33
2023-04-22T23:02:04.117Z,74.57
2023-04-22T23:04:36.774Z,82.30
2023-04-22T23:07:04.118Z,72.93
2023-04-22T23:09:31.250Z,69.30
2023-04-22T23:11:58.593Z,73.00
2023-04-22T23:14:26.993Z,67.53
2023-04-22T23:16:54.458Z,63.27
2023-04-22T23:19:21.821Z,59.90
2023-04-22T23:21:49.409Z,52.37
2023-04-22T23:24:17.208Z,60.03
2023-04-22T23:26:44.550Z,67.00
2023-04-22T23:29:11.799Z,69.50
2023-04-22T23:31:40.727Z,74.87
2023-04-22T23:34:08.120Z,84.20
2023-04-22T23:36:39.226Z,85.40
2023-04-22T23:39:09.808Z,92.90
2023-04-22T23:41:37.128Z,88.47
2023-04-22T23:44:04.313Z,88.83
2023-04-22T23:46:31.815Z,90.63
2023-04-22T23:48:59.509Z,100.80
2023-04-22T23:51:28.371Z,81.00
2023-04-22T23:53:55.591Z,69.33
2023-04-22T23:56:23.035Z,57.17
2023-04-22T23:58:51.146Z,68.57
